Time,TemperatureF,DewpointF,PressureIn,WindDirection,WindDirectionDegrees,WindSpeedMPH,WindSpeedGustMPH,Humidity,HourlyPrecipIn,Conditions,Clouds,dailyrainin,SoftwareType,DateUTC
2013-02-16 00:03:00,26.8,17.6,29.60,NNE,22,0.0,0.0,68,0.00,RA,,0.00,WeatherDisplay:10.37,2013-02-16 07:03:00,
2013-02-16 00:08:00,26.6,17.5,29.60,NNW,338,0.0,0.0,68,0.00,RA,,0.00,WeatherDisplay:10.37,2013-02-16 07:08:00,
2013-02-16 00:13:00,26.8,17.6,29.60,SE,135,0.0,0.0,68,0.00,CLR,,0.00,WeatherDisplay:10.37,2013-02-16 07:13:00,
2013-02-16 00:18:00,26.8,17.6,29.60,South,180,0.0,0.1,68,0.00,CLR,,0.00,WeatherDisplay:10.37,2013-02-16 07:18:00,
2013-02-16 00:23:00,26.4,17.3,29.60,North,0,0.0,0.1,68,0.00,CLR,,0.00,WeatherDisplay:10.37,2013-02-16 07:23:00,
2013-02-16 00:28:00,26.2,17.4,29.60,NE,45,0.0,0.0,69,0.00,CLR,,0.00,WeatherDisplay:10.37,2013-02-16 07:28:00,
2013-02-16 00:33:00,26.2,17.1,29.60,North,0,0.0,0.0,68,0.00,CLR,,0.00,WeatherDisplay:10.37,2013-02-16 07:33:00,
2013-02-16 00:38:00,26.1,17.3,29.60,South,180,0.0,0.0,69,0.00,CLR,,0.00,WeatherDisplay:10.37,2013-02-16 07:38:00,
2013-02-16 00:43:00,26.1,16.9,29.61,ENE,68,0.0,0.0,68,0.00,CLR,,0.00,WeatherDisplay:10.37,2013-02-16 07:43:00,
2013-02-16 00:48:00,25.9,17.1,29.61,North,0,0.0,0.0,69,0.00,CLR,,0.00,WeatherDisplay:10.37,2013-02-16 07:48:00,
2013-02-16 00:53:00,26.1,17.3,29.61,North,0,0.0,0.0,69,0.00,CLR,,0.00,WeatherDisplay:10.37,2013-02-16 07:53:00,
2013-02-16 00:58:00,25.7,16.9,29.61,North,0,0.0,0.0,69,0.00,CLR,,0.00,WeatherDisplay:10.37,2013-02-16 07:58:00,
2013-02-16 01:03:00,25.7,16.9,29.61,North,0,0.0,0.0,69,0.00,CLR,,0.00,WeatherDisplay:10.37,2013-02-16 08:03:00,
2013-02-16 01:08:00,25.7,16.9,29.61,North,0,0.0,0.0,69,0.00,CLR,,0.00,WeatherDisplay:10.37,2013-02-16 08:08:00,
2013-02-16 01:13:00,25.7,16.9,29.61,NW,315,0.0,0.0,69,0.00,CLR,,0.00,WeatherDisplay:10.37,2013-02-16 08:13:00,
2013-02-16 01:18:00,25.7,16.9,29.61,ENE,68,0.0,0.0,69,0.00,CLR,,0.00,WeatherDisplay:10.37,2013-02-16 08:18:00,
2013-02-16 01:23:00,25.7,16.9,29.60,ENE,68,0.0,0.0,69,0.00,CLR,,0.00,WeatherDisplay:10.37,2013-02-16 08:23:00,
2013-02-16 01:28:00,25.3,16.6,29.60,NW,315,0.0,0.0,69,0.00,CLR,,0.00,WeatherDisplay:10.37,2013-02-16 08:28:00,
2013-02-16 01:33:00,25.3,16.6,29.60,WNW,292,0.0,0.0,69,0.00,CLR,,0.00,WeatherDisplay:10.37,2013-02-16 08:33:00,
2013-02-16 01:38:00,25.2,16.4,29.60,ENE,68,0.0,0.0,69,0.00,CLR,,0.00,WeatherDisplay:10.37,2013-02-16 08:38:00,
2013-02-16 01:43:00,25.3,16.6,29.60,NNW,338,0.0,0.0,69,0.00,CLR,,0.00,WeatherDisplay:10.37,2013-02-16 08:43:00,
2013-02-16 01:48:00,25.0,16.2,29.60,North,0,0.0,0.0,69,0.00,CLR,,0.00,WeatherDisplay:10.37,2013-02-16 08:48:00,
2013-02-16 01:53:00,25.0,16.2,29.60,NW,315,0.0,0.0,69,0.00,CLR,,0.00,WeatherDisplay:10.37,2013-02-16 08:53:00,
2013-02-16 01:58:00,25.0,16.2,29.60,NW,315,0.0,0.0,69,0.00,CLR,,0.00,WeatherDisplay:10.37,2013-02-16 08:58:00,
2013-02-16 02:03:00,25.0,16.2,29.60,NNW,338,0.0,0.0,69,0.00,CLR,,0.00,WeatherDisplay:10.37,2013-02-16 09:03:00,
2013-02-16 02:08:00,25.0,16.2,29.60,ENE,68,0.0,0.0,69,0.00,CLR,,0.00,WeatherDisplay:10.37,2013-02-16 09:08:00,
2013-02-16 02:13:00,24.8,16.1,29.60,NNW,338,0.0,0.0,69,0.00,CLR,,0.00,WeatherDisplay:10.37,2013-02-16 09:13:00,
2013-02-16 02:18:00,24.8,16.1,29.60,ENE,68,0.0,0.0,69,0.00,CLR,,0.00,WeatherDisplay:10.37,2013-02-16 09:18:00,
2013-02-16 02:23:00,24.8,16.4,29.60,North,0,0.0,0.0,70,0.00,CLR,,0.00,WeatherDisplay:10.37,2013-02-16 09:23:00,
2013-02-16 02:28:00,25.0,16.6,29.60,North,0,0.0,0.0,70,0.00,CLR,,0.00,WeatherDisplay:10.37,2013-02-16 09:28:00,
2013-02-16 02:33:00,25.0,16.6,29.60,NW,315,0.0,0.0,70,0.00,CLR,,0.00,WeatherDisplay:10.37,2013-02-16 09:33:00,
2013-02-16 02:38:00,25.0,16.6,29.60,SW,225,0.0,0.0,70,0.00,CLR,,0.00,WeatherDisplay:10.37,2013-02-16 09:38:00,
2013-02-16 02:43:00,24.6,16.2,29.59,SW,225,0.0,0.0,70,0.00,CLR,,0.00,WeatherDisplay:10.37,2013-02-16 09:43:00,
2013-02-16 02:48:00,24.6,16.2,29.59,North,0,0.0,0.0,70,0.00,CLR,,0.00,WeatherDisplay:10.37,2013-02-16 09:48:00,
2013-02-16 02:53:00,24.6,16.2,29.59,North,0,0.0,0.0,70,0.00,CLR,,0.00,WeatherDisplay:10.37,2013-02-16 09:53:00,
2013-02-16 02:58:00,24.6,16.2,29.59,North,0,0.0,0.0,70,0.00,CLR,,0.00,WeatherDisplay:10.37,2013-02-16 09:58:00,
2013-02-16 03:03:00,24.6,16.2,29.58,North,0,0.0,0.0,70,0.00,CLR,,0.00,WeatherDisplay:10.37,2013-02-16 10:03:00,
2013-02-16 03:08:00,24.6,16.2,29.58,North,0,0.0,0.0,70,0.00,CLR,,0.00,WeatherDisplay:10.37,2013-02-16 10:08:00,
2013-02-16 03:13:00,24.6,16.2,29.58,NNW,338,0.0,0.0,70,0.00,CLR,,0.00,WeatherDisplay:10.37,2013-02-16 10:13:00,
2013-02-16 03:18:00,24.6,16.2,29.58,NNW,338,0.0,0.0,70,0.00,CLR,,0.00,WeatherDisplay:10.37,2013-02-16 10:18:00,
2013-02-16 03:23:00,24.3,15.9,29.58,North,0,0.0,0.0,70,0.00,CLR,,0.00,WeatherDisplay:10.37,2013-02-16 10:23:00,
2013-02-16 03:28:00,24.3,15.9,29.57,ENE,68,0.0,0.0,70,0.00,CLR,,0.00,WeatherDisplay:10.37,2013-02-16 10:28:00,
2013-02-16 03:33:00,24.1,15.7,29.57,North,0,0.0,0.0,70,0.00,CLR,,0.00,WeatherDisplay:10.37,2013-02-16 10:33:00,
2013-02-16 03:38:00,24.3,15.9,29.57,NW,315,0.0,0.0,70,0.00,CLR,,0.00,WeatherDisplay:10.37,2013-02-16 10:38:00,
2013-02-16 03:43:00,23.9,15.5,29.57,SSE,158,0.0,0.0,70,0.00,CLR,,0.00,WeatherDisplay:10.37,2013-02-16 10:43:00,
2013-02-16 03:48:00,23.9,15.5,29.58,ESE,112,0.0,0.0,70,0.00,CLR,,0.00,WeatherDisplay:10.37,2013-02-16 10:48:00,
2013-02-16 03:53:00,23.9,15.5,29.58,North,0,0.0,0.0,70,0.00,CLR,,0.00,WeatherDisplay:10.37,2013-02-16 10:53:00,
2013-02-16 03:58:00,23.5,15.2,29.58,East,90,0.0,0.0,70,0.00,CLR,,0.00,WeatherDisplay:10.37,2013-02-16 10:58:00,
2013-02-16 04:03:00,23.4,15.0,29.58,North,0,0.0,0.0,70,0.00,CLR,,0.00,WeatherDisplay:10.37,2013-02-16 11:03:00,
2013-02-16 04:08:00,23.4,15.0,29.58,SSE,158,0.0,0.0,70,0.00,CLR,,0.00,WeatherDisplay:10.37,2013-02-16 11:08:00,
2013-02-16 04:13:00,23.2,14.8,29.58,SE,135,0.0,0.0,70,0.00,CLR,,0.00,WeatherDisplay:10.37,2013-02-16 11:13:00,
2013-02-16 04:18:00,23.2,14.8,29.58,SSE,158,0.0,0.0,70,0.00,CLR,,0.00,WeatherDisplay:10.37,2013-02-16 11:18:00,
2013-02-16 04:24:00,23.2,14.8,29.58,North,0,0.0,0.0,70,0.00,CLR,,0.00,WeatherDisplay:10.37,2013-02-16 11:24:00,
2013-02-16 04:29:00,23.2,15.2,29.58,North,0,0.0,0.0,71,0.00,CLR,,0.00,WeatherDisplay:10.37,2013-02-16 11:29:00,
2013-02-16 04:34:00,22.8,14.8,29.58,NNW,338,0.0,0.0,71,0.00,CLR,,0.00,WeatherDisplay:10.37,2013-02-16 11:34:00,
2013-02-16 04:39:00,22.8,14.8,29.58,NNW,338,0.0,0.0,71,0.00,CLR,,0.00,WeatherDisplay:10.37,2013-02-16 11:39:00,
2013-02-16 04:44:00,22.6,14.6,29.58,NNW,338,0.0,0.0,71,0.00,CLR,,0.00,WeatherDisplay:10.37,2013-02-16 11:44:00,
2013-02-16 04:49:00,22.5,14.5,29.58,North,0,0.0,0.0,71,0.00,CLR,,0.00,WeatherDisplay:10.37,2013-02-16 11:49:00,
2013-02-16 04:54:00,22.5,14.5,29.58,NNW,338,0.0,0.0,71,0.00,CLR,,0.00,WeatherDisplay:10.37,2013-02-16 11:54:00,
2013-02-16 04:59:00,22.5,14.5,29.58,NNW,338,0.0,0.0,71,0.00,CLR,,0.00,WeatherDisplay:10.37,2013-02-16 11:59:00,
2013-02-16 05:04:00,22.5,14.5,29.57,North,0,0.0,0.0,71,0.00,CLR,,0.00,WeatherDisplay:10.37,2013-02-16 12:04:00,
2013-02-16 05:09:00,22.5,14.5,29.57,North,0,0.0,0.0,71,0.00,CLR,,0.00,WeatherDisplay:10.37,2013-02-16 12:09:00,
2013-02-16 05:14:00,22.5,14.5,29.57,NNW,338,0.0,0.0,71,0.00,CLR,,0.00,WeatherDisplay:10.37,2013-02-16 12:14:00,
2013-02-16 05:19:00,22.5,14.5,29.57,NNW,338,0.0,0.0,71,0.00,CLR,,0.00,WeatherDisplay:10.37,2013-02-16 12:19:00,
2013-02-16 05:24:00,22.5,14.5,29.57,NNW,338,0.0,0.0,71,0.00,CLR,,0.00,WeatherDisplay:10.37,2013-02-16 12:24:00,
2013-02-16 05:29:00,22.5,14.5,29.57,North,0,0.0,0.0,71,0.00,CLR,,0.00,WeatherDisplay:10.37,2013-02-16 12:29:00,
2013-02-16 05:34:00,22.5,14.5,29.57,NNW,338,0.0,0.0,71,0.00,CLR,,0.00,WeatherDisplay:10.37,2013-02-16 12:34:00,
2013-02-16 05:39:00,22.5,14.5,29.57,North,0,0.0,0.0,71,0.00,CLR,,0.00,WeatherDisplay:10.37,2013-02-16 12:39:00,
2013-02-16 05:44:00,22.5,14.5,29.56,NNW,338,0.0,0.0,71,0.00,CLR,,0.00,WeatherDisplay:10.37,2013-02-16 12:44:00,
2013-02-16 05:49:00,22.1,14.1,29.56,NE,45,0.0,0.0,71,0.00,CLR,,0.00,WeatherDisplay:10.37,2013-02-16 12:49:00,
2013-02-16 05:54:00,22.1,14.1,29.56,NW,315,0.0,0.0,71,0.00,CLR,,0.00,WeatherDisplay:10.37,2013-02-16 12:54:00,
2013-02-16 05:59:00,22.1,14.1,29.56,NW,315,0.0,0.0,71,0.00,CLR,,0.00,WeatherDisplay:10.37,2013-02-16 12:59:00,
2013-02-16 06:04:00,21.9,14.0,29.57,ENE,68,0.0,0.0,71,0.00,CLR,,0.00,WeatherDisplay:10.37,2013-02-16 13:04:00,
2013-02-16 06:09:00,22.1,14.1,29.57,ENE,68,0.0,0.0,71,0.00,CLR,,0.00,WeatherDisplay:10.37,2013-02-16 13:09:00,
2013-02-16 06:14:00,21.7,13.8,29.57,ENE,68,0.0,0.0,71,0.00,CLR,,0.00,WeatherDisplay:10.37,2013-02-16 13:14:00,
2013-02-16 06:19:00,21.7,13.8,29.57,ENE,68,0.0,0.0,71,0.00,CLR,,0.00,WeatherDisplay:10.37,2013-02-16 13:19:00,
2013-02-16 06:24:00,21.7,13.8,29.56,SE,135,0.0,0.0,71,0.00,CLR,,0.00,WeatherDisplay:10.37,2013-02-16 13:24:00,
2013-02-16 06:29:00,21.7,13.8,29.56,WSW,248,0.0,0.0,71,0.00,CLR,,0.00,WeatherDisplay:10.37,2013-02-16 13:29:00,
2013-02-16 06:34:00,21.4,13.4,29.56,North,0,0.0,0.0,71,0.00,CLR,,0.00,WeatherDisplay:10.37,2013-02-16 13:34:00,
2013-02-16 06:39:00,21.4,13.4,29.56,NNW,338,0.0,0.0,71,0.00,CLR,,0.00,WeatherDisplay:10.37,2013-02-16 13:39:00,
2013-02-16 06:44:00,21.4,13.4,29.55,NNE,22,0.0,0.0,71,0.00,CLR,,0.00,WeatherDisplay:10.37,2013-02-16 13:44:00,
2013-02-16 06:49:00,21.0,13.1,29.55,NW,315,0.0,0.0,71,0.00,CLR,,0.00,WeatherDisplay:10.37,2013-02-16 13:49:00,
2013-02-16 06:54:00,21.0,13.4,29.55,NNW,338,0.0,0.0,72,0.00,CLR,,0.00,WeatherDisplay:10.37,2013-02-16 13:54:00,
2013-02-16 06:59:00,21.0,13.4,29.55,North,0,0.0,0.0,72,0.00,CLR,,0.00,WeatherDisplay:10.37,2013-02-16 13:59:00,
2013-02-16 07:04:00,21.0,13.4,29.55,NNW,338,0.0,0.0,72,0.00,CLR,,0.00,WeatherDisplay:10.37,2013-02-16 14:04:00,
2013-02-16 07:09:00,21.0,13.4,29.55,NNW,338,0.0,0.0,72,0.00,CLR,,0.00,WeatherDisplay:10.37,2013-02-16 14:09:00,
2013-02-16 07:14:00,21.0,13.4,29.55,North,0,0.0,0.0,72,0.00,CLR,,0.00,WeatherDisplay:10.37,2013-02-16 14:14:00,
2013-02-16 07:19:00,21.0,13.4,29.55,East,90,0.0,0.0,72,0.00,CLR,,0.00,WeatherDisplay:10.37,2013-02-16 14:19:00,
2013-02-16 07:24:00,21.0,13.4,29.55,SSE,158,0.0,0.0,72,0.00,CLR,,0.00,WeatherDisplay:10.37,2013-02-16 14:24:00,
2013-02-16 07:29:00,21.0,13.4,29.55,NW,315,0.0,0.0,72,0.00,CLR,,0.00,WeatherDisplay:10.37,2013-02-16 14:29:00,
2013-02-16 07:34:00,21.0,13.4,29.55,ENE,68,0.0,0.0,72,0.00,CLR,,0.00,WeatherDisplay:10.37,2013-02-16 14:34:00,
2013-02-16 07:39:00,21.0,13.4,29.55,ENE,68,0.0,0.0,72,0.00,CLR,,0.00,WeatherDisplay:10.37,2013-02-16 14:39:00,
2013-02-16 07:44:00,21.0,13.4,29.53,North,0,0.0,0.0,72,0.00,CLR,,0.00,WeatherDisplay:10.37,2013-02-16 14:44:00,
2013-02-16 07:49:00,21.0,13.4,29.53,North,0,0.0,0.0,72,0.00,CLR,,0.00,WeatherDisplay:10.37,2013-02-16 14:49:00,
2013-02-16 07:54:00,21.0,13.4,29.53,NW,315,0.0,0.0,72,0.00,CLR,,0.00,WeatherDisplay:10.37,2013-02-16 14:54:00,
2013-02-16 07:59:00,21.0,13.4,29.53,North,0,0.0,0.0,72,0.00,CLR,,0.00,WeatherDisplay:10.37,2013-02-16 14:59:00,
2013-02-16 08:04:00,21.0,13.4,29.52,North,0,0.0,0.0,72,0.00,CLR,,0.00,WeatherDisplay:10.37,2013-02-16 15:04:00,
2013-02-16 08:09:00,21.2,13.6,29.52,North,0,0.0,0.0,72,0.00,CLR,,0.00,WeatherDisplay:10.37,2013-02-16 15:09:00,
2013-02-16 08:14:00,21.4,13.8,29.52,NNW,338,0.0,0.0,72,0.00,CLR,,0.00,WeatherDisplay:10.37,2013-02-16 15:14:00,
2013-02-16 08:19:00,21.7,14.1,29.52,NNW,338,0.0,0.0,72,0.00,CLR,,0.00,WeatherDisplay:10.37,2013-02-16 15:19:00,
2013-02-16 08:24:00,21.9,14.6,29.52,North,0,0.0,0.0,73,0.00,CLR,,0.00,WeatherDisplay:10.37,2013-02-16 15:24:00,
2013-02-16 08:29:00,22.5,15.1,29.52,NNW,338,0.0,0.0,73,0.00,CLR,,0.00,WeatherDisplay:10.37,2013-02-16 15:29:00,
2013-02-16 08:34:00,22.8,15.5,29.52,NNW,338,0.0,0.0,73,0.00,CLR,,0.00,WeatherDisplay:10.37,2013-02-16 15:34:00,
2013-02-16 08:39:00,23.4,16.0,29.52,NNW,338,0.0,0.0,73,0.00,CLR,,0.00,WeatherDisplay:10.37,2013-02-16 15:39:00,
2013-02-16 08:44:00,23.7,16.3,29.50,NW,315,0.0,0.0,73,0.00,CLR,,0.00,WeatherDisplay:10.37,2013-02-16 15:44:00,
2013-02-16 08:49:00,24.3,16.8,29.50,NNW,338,0.0,0.0,73,0.00,CLR,,0.00,WeatherDisplay:10.37,2013-02-16 15:49:00,
2013-02-16 08:54:00,24.8,17.4,29.50,NNW,338,0.0,0.0,73,0.00,CLR,,0.00,WeatherDisplay:10.37,2013-02-16 15:54:00,
2013-02-16 08:59:00,25.3,17.9,29.50,NNW,338,0.0,0.0,73,0.00,CLR,,0.00,WeatherDisplay:10.37,2013-02-16 15:59:00,
2013-02-16 09:04:00,26.1,18.6,29.50,NW,315,0.0,0.0,73,0.00,CLR,,0.00,WeatherDisplay:10.37,2013-02-16 16:04:00,
2013-02-16 09:09:00,26.4,18.9,29.50,NW,315,0.0,0.0,73,0.00,CLR,,0.00,WeatherDisplay:10.37,2013-02-16 16:09:00,
2013-02-16 09:14:00,27.1,19.6,29.50,NNW,338,0.0,0.0,73,0.00,CLR,,0.00,WeatherDisplay:10.37,2013-02-16 16:14:00,
2013-02-16 09:19:00,27.9,20.3,29.50,WNW,292,1.0,0.0,73,0.00,CLR,,0.00,WeatherDisplay:10.37,2013-02-16 16:19:00,
2013-02-16 09:24:00,28.6,21.0,29.53,SSW,202,0.0,0.0,73,0.00,CLR,,0.00,WeatherDisplay:10.37,2013-02-16 16:24:00,
2013-02-16 09:29:00,29.8,22.2,29.53,NNW,338,1.1,1.1,73,0.00,CLR,,0.00,WeatherDisplay:10.37,2013-02-16 16:29:00,
2013-02-16 09:34:00,30.6,22.6,29.53,NNW,338,1.1,1.1,72,0.00,CLR,,0.00,WeatherDisplay:10.37,2013-02-16 16:34:00,
2013-02-16 09:39:00,31.6,23.6,29.53,NW,315,0.0,0.5,72,0.00,CLR,,0.00,WeatherDisplay:10.37,2013-02-16 16:39:00,
2013-02-16 09:44:00,32.5,24.2,29.54,East,90,1.1,1.1,71,0.00,CLR,,0.00,WeatherDisplay:10.37,2013-02-16 16:44:00,
2013-02-16 09:49:00,33.6,25.2,29.54,East,90,0.0,0.2,71,0.00,CLR,,0.00,WeatherDisplay:10.37,2013-02-16 16:49:00,
2013-02-16 09:54:00,34.3,25.6,29.54,WNW,292,0.0,0.2,70,0.00,CLR,,0.00,WeatherDisplay:10.37,2013-02-16 16:54:00,
2013-02-16 09:59:00,35.1,25.9,29.54,NE,45,2.3,2.3,69,0.00,CLR,,0.00,WeatherDisplay:10.37,2013-02-16 16:59:00,
2013-02-16 10:04:00,35.6,26.4,29.51,North,0,0.0,0.3,69,0.00,CLR,,0.00,WeatherDisplay:10.37,2013-02-16 17:04:00,
2013-02-16 10:09:00,36.3,26.8,29.51,North,0,0.0,0.0,68,0.00,CLR,,0.00,WeatherDisplay:10.37,2013-02-16 17:09:00,
2013-02-16 10:14:00,37.2,27.3,29.51,ENE,68,2.3,2.3,67,0.00,CLR,,0.00,WeatherDisplay:10.37,2013-02-16 17:14:00,
2013-02-16 10:19:00,38.1,27.8,29.51,North,0,3.5,3.5,66,0.00,CLR,,0.00,WeatherDisplay:10.37,2013-02-16 17:19:00,
2013-02-16 10:24:00,39.0,28.6,29.54,North,0,2.3,2.3,66,0.00,CLR,,0.00,WeatherDisplay:10.37,2013-02-16 17:24:00,
2013-02-16 10:29:00,39.7,28.9,29.54,SE,135,1.1,1.1,65,0.00,CLR,,0.00,WeatherDisplay:10.37,2013-02-16 17:29:00,
2013-02-16 10:34:00,40.6,29.8,29.54,West,270,2.3,2.3,65,0.00,CLR,,0.00,WeatherDisplay:10.37,2013-02-16 17:34:00,
2013-02-16 10:39:00,41.9,30.6,29.54,NE,45,8.4,8.4,64,0.00,CLR,,0.00,WeatherDisplay:10.37,2013-02-16 17:39:00,
2013-02-16 10:44:00,42.6,30.9,29.53,NE,45,5.8,5.8,63,0.00,CLR,,0.00,WeatherDisplay:10.37,2013-02-16 17:44:00,
2013-02-16 10:49:00,43.5,31.4,29.53,ENE,68,3.2,3.2,62,0.00,CLR,,0.00,WeatherDisplay:10.37,2013-02-16 17:49:00,
2013-02-16 10:54:00,44.4,31.8,29.53,ENE,68,9.2,9.2,61,0.00,CLR,,0.00,WeatherDisplay:10.37,2013-02-16 17:54:00,
2013-02-16 10:59:00,45.5,32.8,29.53,NE,45,4.6,4.6,61,0.00,CLR,,0.00,WeatherDisplay:10.37,2013-02-16 17:59:00,
2013-02-16 11:04:00,45.7,32.6,29.54,North,0,1.1,2.1,60,0.00,CLR,,0.00,WeatherDisplay:10.37,2013-02-16 18:04:00,
2013-02-16 11:09:00,46.4,32.8,29.54,NW,315,1.1,1.1,59,0.00,CLR,,0.00,WeatherDisplay:10.37,2013-02-16 18:09:00,
2013-02-16 11:14:00,46.6,33.0,29.54,NE,45,2.3,2.3,59,0.00,CLR,,0.00,WeatherDisplay:10.37,2013-02-16 18:14:00,
2013-02-16 11:19:00,47.1,33.5,29.54,NE,45,1.1,1.1,59,0.00,CLR,,0.00,WeatherDisplay:10.37,2013-02-16 18:19:00,
2013-02-16 11:25:00,47.3,33.3,29.53,ENE,68,2.8,2.8,58,0.00,CLR,,0.00,WeatherDisplay:10.37,2013-02-16 18:25:00,
2013-02-16 11:30:00,47.3,33.3,29.53,ESE,112,0.0,1.0,58,0.00,CLR,,0.00,WeatherDisplay:10.37,2013-02-16 18:30:00,
2013-02-16 11:35:00,47.3,32.8,29.53,NE,45,0.0,0.2,57,0.00,CLR,,0.00,WeatherDisplay:10.37,2013-02-16 18:35:00,
2013-02-16 11:40:00,47.3,32.8,29.53,SSE,158,2.3,2.3,57,0.00,CLR,,0.00,WeatherDisplay:10.37,2013-02-16 18:40:00,
2013-02-16 11:45:00,47.1,32.7,29.51,East,90,3.5,3.5,57,0.00,CLR,,0.00,WeatherDisplay:10.37,2013-02-16 18:45:00,
2013-02-16 11:50:00,47.1,32.7,29.51,East,90,2.3,2.3,57,0.00,CLR,,0.00,WeatherDisplay:10.37,2013-02-16 18:50:00,
2013-02-16 11:55:00,47.3,32.4,29.51,NE,45,0.0,0.3,56,0.00,CLR,,0.00,WeatherDisplay:10.37,2013-02-16 18:55:00,
2013-02-16 12:00:00,47.7,32.7,29.51,NE,45,0.0,0.1,56,0.00,CLR,,0.00,WeatherDisplay:10.37,2013-02-16 19:00:00,
2013-02-16 12:05:00,47.7,32.7,29.51,NW,315,0.0,0.1,56,0.00,CLR,,0.00,WeatherDisplay:10.37,2013-02-16 19:05:00,
2013-02-16 12:10:00,47.7,32.7,29.51,NW,315,0.0,0.1,56,0.00,CLR,,0.00,WeatherDisplay:10.37,2013-02-16 19:10:00,
2013-02-16 12:15:00,48.2,32.8,29.51,NNW,338,1.1,1.1,55,0.00,CLR,,0.00,WeatherDisplay:10.37,2013-02-16 19:15:00,
2013-02-16 12:20:00,48.6,33.1,29.51,SSW,202,2.3,2.3,55,0.00,CLR,,0.00,WeatherDisplay:10.37,2013-02-16 19:20:00,
2013-02-16 12:25:00,48.7,32.8,29.50,SSE,158,0.0,0.1,54,0.00,CLR,,0.00,WeatherDisplay:10.37,2013-02-16 19:25:00,
2013-02-16 12:30:00,48.7,32.8,29.50,East,90,2.3,2.3,54,0.00,CLR,,0.00,WeatherDisplay:10.37,2013-02-16 19:30:00,
2013-02-16 12:35:00,49.1,33.2,29.50,ENE,68,5.8,5.8,54,0.00,CLR,,0.00,WeatherDisplay:10.37,2013-02-16 19:35:00,
2013-02-16 12:40:00,49.3,32.9,29.50,ENE,68,3.5,3.5,53,0.00,CLR,,0.00,WeatherDisplay:10.37,2013-02-16 19:40:00,
2013-02-16 12:45:00,49.8,33.4,29.48,WSW,248,2.3,2.3,53,0.00,CLR,,0.00,WeatherDisplay:10.37,2013-02-16 19:45:00,
2013-02-16 12:50:00,49.8,33.4,29.48,ENE,68,3.5,3.5,53,0.00,CLR,,0.00,WeatherDisplay:10.37,2013-02-16 19:50:00,
2013-02-16 12:55:00,49.8,33.4,29.48,WSW,248,0.0,0.9,53,0.00,CLR,,0.00,WeatherDisplay:10.37,2013-02-16 19:55:00,
2013-02-16 13:00:00,50.0,33.5,29.48,ENE,68,0.0,0.8,53,0.00,CLR,,0.00,WeatherDisplay:10.37,2013-02-16 20:00:00,
2013-02-16 13:05:00,50.0,33.1,29.47,NE,45,3.5,3.5,52,0.00,CLR,,0.00,WeatherDisplay:10.37,2013-02-16 20:05:00,
2013-02-16 13:10:00,50.0,33.1,29.47,NNW,338,3.5,3.5,52,0.00,CLR,,0.00,WeatherDisplay:10.37,2013-02-16 20:10:00,
2013-02-16 13:15:00,50.0,32.6,29.47,East,90,2.3,2.3,51,0.00,CLR,,0.00,WeatherDisplay:10.37,2013-02-16 20:15:00,
2013-02-16 13:20:00,50.2,33.2,29.47,NW,315,2.6,2.6,52,0.00,CLR,,0.00,WeatherDisplay:10.37,2013-02-16 20:20:00,
2013-02-16 13:25:00,50.0,32.6,29.46,SW,225,0.0,1.1,51,0.00,CLR,,0.00,WeatherDisplay:10.37,2013-02-16 20:25:00,
2013-02-16 13:31:00,49.8,32.4,29.46,NE,45,4.6,4.6,51,0.00,CLR,,0.00,WeatherDisplay:10.37,2013-02-16 20:31:00,
2013-02-16 13:36:00,50.0,32.6,29.46,North,0,1.8,1.8,51,0.00,CLR,,0.00,WeatherDisplay:10.37,2013-02-16 20:36:00,
2013-02-16 13:41:00,49.8,32.4,29.46,WSW,248,1.1,1.1,51,0.00,CLR,,0.00,WeatherDisplay:10.37,2013-02-16 20:41:00,
2013-02-16 13:46:00,50.0,32.6,29.44,ENE,68,1.1,1.1,51,0.00,CLR,,0.00,WeatherDisplay:10.37,2013-02-16 20:46:00,
2013-02-16 13:51:00,50.0,32.6,29.44,SW,225,2.3,2.3,51,0.00,CLR,,0.00,WeatherDisplay:10.37,2013-02-16 20:51:00,
2013-02-16 13:56:00,50.2,32.7,29.44,NNW,338,0.0,0.9,51,0.00,CLR,,0.00,WeatherDisplay:10.37,2013-02-16 20:56:00,
2013-02-16 14:01:00,50.4,32.9,29.44,East,90,1.1,1.1,51,0.00,CLR,,0.00,WeatherDisplay:10.37,2013-02-16 21:01:00,
2013-02-16 14:06:00,50.4,32.9,29.40,East,90,0.0,0.9,51,0.00,CLR,,0.00,WeatherDisplay:10.37,2013-02-16 21:06:00,
2013-02-16 14:11:00,50.2,32.7,29.40,SSE,158,3.5,3.5,51,0.00,CLR,,0.00,WeatherDisplay:10.37,2013-02-16 21:11:00,
2013-02-16 14:16:00,50.5,33.1,29.40,SE,135,0.0,1.1,51,0.00,CLR,,0.00,WeatherDisplay:10.37,2013-02-16 21:16:00,
2013-02-16 14:21:00,50.7,33.2,29.40,NNW,338,0.0,0.6,51,0.00,CLR,,0.00,WeatherDisplay:10.37,2013-02-16 21:21:00,
2013-02-16 14:26:00,51.1,33.6,29.39,WNW,292,2.3,2.3,51,0.00,CLR,,0.00,WeatherDisplay:10.37,2013-02-16 21:26:00,
2013-02-16 14:31:00,51.3,33.7,29.39,North,0,0.0,0.1,51,0.00,CLR,,0.00,WeatherDisplay:10.37,2013-02-16 21:31:00,
2013-02-16 14:36:00,51.3,33.2,29.39,East,90,0.0,0.0,50,0.00,CLR,,0.00,WeatherDisplay:10.37,2013-02-16 21:36:00,
2013-02-16 14:41:00,51.3,33.2,29.39,NW,315,0.0,0.1,50,0.00,CLR,,0.00,WeatherDisplay:10.37,2013-02-16 21:41:00,
2013-02-16 14:46:00,51.1,33.1,29.40,WSW,248,0.0,0.2,50,0.00,CLR,,0.00,WeatherDisplay:10.37,2013-02-16 21:46:00,
2013-02-16 14:51:00,51.3,32.7,29.40,SSW,202,2.3,2.3,49,0.00,CLR,,0.00,WeatherDisplay:10.37,2013-02-16 21:51:00,
2013-02-16 14:56:00,51.1,33.1,29.40,WSW,248,0.0,0.2,50,0.00,CLR,,0.00,WeatherDisplay:10.37,2013-02-16 21:56:00,
2013-02-16 15:01:00,51.3,32.7,29.40,North,0,0.0,0.1,49,0.00,CLR,,0.00,WeatherDisplay:10.37,2013-02-16 22:01:00,
2013-02-16 15:06:00,51.4,32.9,29.40,WNW,292,6.9,6.9,49,0.00,CLR,,0.00,WeatherDisplay:10.37,2013-02-16 22:06:00,
2013-02-16 15:11:00,51.4,32.9,29.40,ENE,68,2.3,2.3,49,0.00,CLR,,0.00,WeatherDisplay:10.37,2013-02-16 22:11:00,
2013-02-16 15:16:00,51.6,33.1,29.40,South,180,0.0,0.3,49,0.00,CLR,,0.00,WeatherDisplay:10.37,2013-02-16 22:16:00,
2013-02-16 15:21:00,51.4,32.4,29.40,North,0,4.6,4.6,48,0.00,CLR,,0.00,WeatherDisplay:10.37,2013-02-16 22:21:00,
2013-02-16 15:26:00,51.6,32.6,29.39,East,90,0.0,2.4,48,0.00,CLR,,0.00,WeatherDisplay:10.37,2013-02-16 22:26:00,
2013-02-16 15:31:00,51.6,32.6,29.39,SSW,202,2.3,2.3,48,0.00,CLR,,0.00,WeatherDisplay:10.37,2013-02-16 22:31:00,
2013-02-16 15:36:00,51.3,31.2,29.39,South,180,2.3,2.3,46,0.00,CLR,,0.00,WeatherDisplay:10.37,2013-02-16 22:36:00,
2013-02-16 15:41:00,50.9,31.9,29.39,East,90,2.3,2.3,48,0.00,CLR,,0.00,WeatherDisplay:10.37,2013-02-16 22:41:00,
2013-02-16 15:46:00,50.7,32.2,29.38,East,90,2.3,2.3,49,0.00,CLR,,0.00,WeatherDisplay:10.37,2013-02-16 22:46:00,
2013-02-16 15:51:00,50.5,32.1,29.38,SSE,158,1.1,1.1,49,0.00,CLR,,0.00,WeatherDisplay:10.37,2013-02-16 22:51:00,
2013-02-16 15:56:00,50.0,31.6,29.38,SSE,158,0.0,0.3,49,0.00,CLR,,0.00,WeatherDisplay:10.37,2013-02-16 22:56:00,
2013-02-16 16:01:00,50.0,31.6,29.38,SSE,158,0.0,0.3,49,0.00,CLR,,0.00,WeatherDisplay:10.37,2013-02-16 23:01:00,
2013-02-16 16:06:00,49.6,31.7,29.37,ESE,112,0.0,0.1,50,0.00,CLR,,0.00,WeatherDisplay:10.37,2013-02-16 23:06:00,
2013-02-16 16:11:00,49.3,31.4,29.37,SSW,202,0.0,0.1,50,0.00,CLR,,0.00,WeatherDisplay:10.37,2013-02-16 23:11:00,
2013-02-16 16:16:00,49.1,31.2,29.37,North,0,0.0,0.1,50,0.00,CLR,,0.00,WeatherDisplay:10.37,2013-02-16 23:16:00,
2013-02-16 16:21:00,49.1,31.2,29.37,SW,225,0.0,0.0,50,0.00,CLR,,0.00,WeatherDisplay:10.37,2013-02-16 23:21:00,
2013-02-16 16:26:00,48.6,30.7,29.33,WSW,248,0.0,0.1,50,0.00,CLR,,0.00,WeatherDisplay:10.37,2013-02-16 23:26:00,
2013-02-16 16:31:00,48.6,30.7,29.33,SSE,158,0.0,0.1,50,0.00,CLR,,0.00,WeatherDisplay:10.37,2013-02-16 23:31:00,
2013-02-16 16:36:00,48.4,30.6,29.33,SE,135,2.3,2.3,50,0.00,CLR,,0.00,WeatherDisplay:10.37,2013-02-16 23:36:00,
2013-02-16 16:41:00,48.0,30.2,29.33,East,90,0.0,0.3,50,0.00,CLR,,0.00,WeatherDisplay:10.37,2013-02-16 23:41:00,
2013-02-16 16:46:00,47.7,29.9,29.30,SSE,158,0.0,0.1,50,0.00,CLR,,0.00,WeatherDisplay:10.37,2013-02-16 23:46:00,
2013-02-16 16:51:00,47.3,29.6,29.30,SSW,202,0.0,0.0,50,0.00,CLR,,0.00,WeatherDisplay:10.37,2013-02-16 23:51:00,
2013-02-16 16:56:00,46.8,29.6,29.30,South,180,2.3,2.3,51,0.00,CLR,,0.00,WeatherDisplay:10.37,2013-02-16 23:56:00,
2013-02-16 17:01:00,46.6,29.4,29.30,SE,135,1.1,1.1,51,0.00,CLR,,0.00,WeatherDisplay:10.37,2013-02-17 00:01:00,
2013-02-16 17:06:00,46.0,28.9,29.29,NE,45,0.0,0.2,51,0.00,CLR,,0.00,WeatherDisplay:10.37,2013-02-17 00:06:00,
2013-02-16 17:11:00,45.9,28.7,29.29,SE,135,0.0,0.0,51,0.00,CLR,,0.00,WeatherDisplay:10.37,2013-02-17 00:11:00,
2013-02-16 17:16:00,45.7,29.0,29.29,East,90,0.0,0.0,52,0.00,CLR,,0.00,WeatherDisplay:10.37,2013-02-17 00:16:00,
2013-02-16 17:21:00,45.1,28.5,29.29,WSW,248,0.0,0.0,52,0.00,CLR,,0.00,WeatherDisplay:10.37,2013-02-17 00:21:00,
2013-02-16 17:26:00,44.6,28.0,29.29,ESE,112,0.0,0.0,52,0.00,CLR,,0.00,WeatherDisplay:10.37,2013-02-17 00:26:00,
2013-02-16 17:31:00,44.4,27.9,29.29,ESE,112,0.0,0.0,52,0.00,CLR,,0.00,WeatherDisplay:10.37,2013-02-17 00:31:00,
2013-02-16 17:36:00,44.1,28.0,29.29,SE,135,0.0,0.0,53,0.00,CLR,,0.00,WeatherDisplay:10.37,2013-02-17 00:36:00,
2013-02-16 17:41:00,43.7,27.7,29.29,ESE,112,0.0,0.0,53,0.00,CLR,,0.00,WeatherDisplay:10.37,2013-02-17 00:41:00,
2013-02-16 17:46:00,43.2,27.2,29.28,East,90,0.0,0.0,53,0.00,CLR,,0.00,WeatherDisplay:10.37,2013-02-17 00:46:00,
2013-02-16 17:51:00,42.8,26.8,29.28,East,90,0.0,0.0,53,0.00,CLR,,0.00,WeatherDisplay:10.37,2013-02-17 00:51:00,
2013-02-16 17:56:00,42.3,26.8,29.28,NE,45,0.0,0.0,54,0.00,CLR,,0.00,WeatherDisplay:10.37,2013-02-17 00:56:00,
2013-02-16 18:01:00,41.9,26.4,29.28,North,0,0.0,0.0,54,0.00,CLR,,0.00,WeatherDisplay:10.37,2013-02-17 01:01:00,
2013-02-16 18:06:00,41.2,25.8,29.28,North,0,0.0,0.0,54,0.00,CLR,,0.00,WeatherDisplay:10.37,2013-02-17 01:06:00,
2013-02-16 18:11:00,40.6,25.7,29.28,NE,45,0.0,0.0,55,0.00,CLR,,0.00,WeatherDisplay:10.37,2013-02-17 01:11:00,
2013-02-16 18:16:00,40.3,25.4,29.28,NE,45,0.0,0.0,55,0.00,CLR,,0.00,WeatherDisplay:10.37,2013-02-17 01:16:00,
2013-02-16 18:21:00,39.9,25.0,29.28,NE,45,0.0,0.0,55,0.00,CLR,,0.00,WeatherDisplay:10.37,2013-02-17 01:21:00,
2013-02-16 18:26:00,39.4,24.5,29.27,North,0,0.0,0.0,55,0.00,CLR,,0.00,WeatherDisplay:10.37,2013-02-17 01:26:00,
2013-02-16 18:31:00,39.0,24.2,29.27,NNW,338,0.0,0.0,55,0.00,CLR,,0.00,WeatherDisplay:10.37,2013-02-17 01:31:00,
2013-02-16 18:36:00,38.5,24.1,29.27,North,0,0.0,0.0,56,0.00,CLR,,0.00,WeatherDisplay:10.37,2013-02-17 01:36:00,
2013-02-16 18:41:00,38.3,24.0,29.27,NNW,338,0.0,0.0,56,0.00,CLR,,0.00,WeatherDisplay:10.37,2013-02-17 01:41:00,
2013-02-16 18:46:00,37.8,23.9,29.28,NNW,338,0.0,0.0,57,0.00,CLR,,0.00,WeatherDisplay:10.37,2013-02-17 01:46:00,
2013-02-16 18:51:00,37.6,23.7,29.28,NNW,338,0.0,0.0,57,0.00,CLR,,0.00,WeatherDisplay:10.37,2013-02-17 01:51:00,
2013-02-16 18:56:00,37.0,23.2,29.28,North,0,0.0,0.0,57,0.00,CLR,,0.00,WeatherDisplay:10.37,2013-02-17 01:56:00,
2013-02-16 19:01:00,36.9,23.0,29.28,North,0,0.0,0.0,57,0.00,CLR,,0.00,WeatherDisplay:10.37,2013-02-17 02:01:00,
2013-02-16 19:06:00,36.3,22.5,29.26,North,0,0.0,0.0,57,0.00,CLR,,0.00,WeatherDisplay:10.37,2013-02-17 02:06:00,
2013-02-16 19:11:00,36.1,22.8,29.26,North,0,0.0,0.0,58,0.00,CLR,,0.00,WeatherDisplay:10.37,2013-02-17 02:11:00,
2013-02-16 19:16:00,35.8,22.4,29.26,North,0,0.0,0.0,58,0.00,CLR,,0.00,WeatherDisplay:10.37,2013-02-17 02:16:00,
2013-02-16 19:21:00,35.8,22.4,29.26,North,0,0.0,0.0,58,0.00,CLR,,0.00,WeatherDisplay:10.37,2013-02-17 02:21:00,
2013-02-16 19:26:00,35.6,22.7,29.26,NE,45,0.0,0.0,59,0.00,CLR,,0.00,WeatherDisplay:10.37,2013-02-17 02:26:00,
2013-02-16 19:31:00,35.6,22.7,29.26,NNW,338,0.0,0.0,59,0.00,CLR,,0.00,WeatherDisplay:10.37,2013-02-17 02:31:00,
2013-02-16 19:36:00,35.6,22.7,29.26,North,0,0.0,0.0,59,0.00,CLR,,0.00,WeatherDisplay:10.37,2013-02-17 02:36:00,
2013-02-16 19:41:00,35.6,22.7,29.26,WNW,292,0.0,0.0,59,0.00,CLR,,0.00,WeatherDisplay:10.37,2013-02-17 02:41:00,
2013-02-16 19:46:00,35.4,22.9,29.25,NNE,22,0.0,0.0,60,0.00,CLR,,0.00,WeatherDisplay:10.37,2013-02-17 02:46:00,
2013-02-16 19:51:00,35.4,22.9,29.25,NNE,22,0.0,0.0,60,0.00,CLR,,0.00,WeatherDisplay:10.37,2013-02-17 02:51:00,
2013-02-16 19:56:00,35.4,22.9,29.25,NE,45,0.0,0.0,60,0.00,CLR,,0.00,WeatherDisplay:10.37,2013-02-17 02:56:00,
2013-02-16 20:01:00,35.4,22.9,29.25,North,0,0.0,0.0,60,0.00,CLR,,0.00,WeatherDisplay:10.37,2013-02-17 03:01:00,
2013-02-16 20:06:00,35.6,23.1,29.24,North,0,0.0,0.0,60,0.00,CLR,,0.00,WeatherDisplay:10.37,2013-02-17 03:06:00,
2013-02-16 20:11:00,35.4,23.3,29.24,NNE,22,0.0,0.0,61,0.00,CLR,,0.00,WeatherDisplay:10.37,2013-02-17 03:11:00,
2013-02-16 20:16:00,35.6,23.5,29.24,North,0,0.0,0.0,61,0.00,CLR,,0.00,WeatherDisplay:10.37,2013-02-17 03:16:00,
2013-02-16 20:21:00,35.6,23.5,29.24,North,0,0.0,0.0,61,0.00,CLR,,0.00,WeatherDisplay:10.37,2013-02-17 03:21:00,
2013-02-16 20:26:00,35.6,23.5,29.23,NNW,338,0.0,0.0,61,0.00,CLR,,0.00,WeatherDisplay:10.37,2013-02-17 03:26:00,
2013-02-16 20:31:00,35.6,23.5,29.23,NW,315,0.0,0.0,61,0.00,CLR,,0.00,WeatherDisplay:10.37,2013-02-17 03:31:00,
2013-02-16 20:36:00,35.8,23.6,29.23,NNW,338,0.0,0.0,61,0.00,CLR,,0.00,WeatherDisplay:10.37,2013-02-17 03:36:00,
2013-02-16 20:41:00,35.6,23.5,29.23,NNW,338,0.0,0.0,61,0.00,CLR,,0.00,WeatherDisplay:10.37,2013-02-17 03:41:00,
2013-02-16 20:46:00,35.2,23.1,29.22,NNW,338,0.0,0.0,61,0.00,CLR,,0.00,WeatherDisplay:10.37,2013-02-17 03:46:00,
2013-02-16 20:51:00,35.2,23.1,29.22,North,0,0.0,0.0,61,0.00,CLR,,0.00,WeatherDisplay:10.37,2013-02-17 03:51:00,
2013-02-16 20:56:00,34.9,22.8,29.22,NNW,338,0.0,0.0,61,0.00,CLR,,0.00,WeatherDisplay:10.37,2013-02-17 03:56:00,
2013-02-16 21:01:00,34.7,22.6,29.22,East,90,0.0,0.0,61,0.00,CLR,,0.00,WeatherDisplay:10.37,2013-02-17 04:01:00,
2013-02-16 21:06:00,34.3,22.7,29.20,North,0,0.0,0.0,62,0.00,CLR,,0.00,WeatherDisplay:10.37,2013-02-17 04:06:00,
2013-02-16 21:11:00,34.2,22.5,29.20,NNE,22,0.0,0.0,62,0.00,CLR,,0.00,WeatherDisplay:10.37,2013-02-17 04:11:00,
2013-02-16 21:16:00,34.2,22.5,29.20,NNW,338,0.0,0.0,62,0.00,CLR,,0.00,WeatherDisplay:10.37,2013-02-17 04:16:00,
2013-02-16 21:21:00,34.0,22.3,29.20,NE,45,0.0,0.0,62,0.00,CLR,,0.00,WeatherDisplay:10.37,2013-02-17 04:21:00,
2013-02-16 21:26:00,33.8,22.1,29.20,North,0,0.0,0.0,62,0.00,CLR,,0.00,WeatherDisplay:10.37,2013-02-17 04:26:00,
2013-02-16 21:31:00,33.6,22.0,29.20,ENE,68,0.0,0.0,62,0.00,CLR,,0.00,WeatherDisplay:10.37,2013-02-17 04:31:00,
2013-02-16 21:36:00,33.4,22.2,29.20,NNW,338,0.0,0.0,63,0.00,CLR,,0.00,WeatherDisplay:10.37,2013-02-17 04:36:00,
2013-02-16 21:41:00,33.4,22.2,29.20,NNW,338,0.0,0.0,63,0.00,CLR,,0.00,WeatherDisplay:10.37,2013-02-17 04:41:00,
2013-02-16 21:46:00,33.3,22.0,29.19,NW,315,0.0,0.0,63,0.00,CLR,,0.00,WeatherDisplay:10.37,2013-02-17 04:46:00,
2013-02-16 21:51:00,32.9,21.7,29.19,NNW,338,0.0,0.0,63,0.00,CLR,,0.00,WeatherDisplay:10.37,2013-02-17 04:51:00,
2013-02-16 21:56:00,32.7,21.5,29.19,North,0,0.0,0.0,63,0.00,CLR,,0.00,WeatherDisplay:10.37,2013-02-17 04:56:00,
2013-02-16 22:00:00,32.5,21.3,29.19,North,0,0.0,0.0,63,0.00,CLR,,0.00,WeatherDisplay:10.37,2013-02-17 05:00:00,
2013-02-16 22:02:00,32.5,21.3,29.19,NE,45,0.0,0.0,63,0.00,CLR,,0.00,WeatherDisplay:10.37,2013-02-17 05:02:00,
2013-02-16 22:06:00,32.2,21.0,29.18,North,0,0.0,0.0,63,0.00,CLR,,0.00,WeatherDisplay:10.37,2013-02-17 05:06:00,
2013-02-16 22:11:00,31.8,20.6,29.18,NNW,338,0.0,0.0,63,0.00,CLR,,0.00,WeatherDisplay:10.37,2013-02-17 05:11:00,
2013-02-16 22:16:00,31.8,20.6,29.18,North,0,0.0,0.0,63,0.00,CLR,,0.00,WeatherDisplay:10.37,2013-02-17 05:16:00,
2013-02-16 22:21:00,31.5,20.3,29.18,NW,315,0.0,0.0,63,0.00,CLR,,0.00,WeatherDisplay:10.37,2013-02-17 05:21:00,
2013-02-16 22:26:00,31.1,20.0,29.18,SE,135,0.0,0.0,63,0.00,CLR,,0.00,WeatherDisplay:10.37,2013-02-17 05:26:00,
2013-02-16 22:31:00,31.1,20.3,29.18,NNE,22,0.0,0.0,64,0.00,CLR,,0.00,WeatherDisplay:10.37,2013-02-17 05:31:00,
2013-02-16 22:36:00,30.6,19.8,29.18,East,90,0.0,0.0,64,0.00,CLR,,0.00,WeatherDisplay:10.37,2013-02-17 05:36:00,
2013-02-16 22:41:00,30.4,19.6,29.18,North,0,0.0,0.0,64,0.00,CLR,,0.00,WeatherDisplay:10.37,2013-02-17 05:41:00,
2013-02-16 22:46:00,30.4,19.6,29.18,NNW,338,0.0,0.0,64,0.00,CLR,,0.00,WeatherDisplay:10.37,2013-02-17 05:46:00,
2013-02-16 22:51:00,30.0,19.3,29.18,NNE,22,0.0,0.0,64,0.00,CLR,,0.00,WeatherDisplay:10.37,2013-02-17 05:51:00,
2013-02-16 22:56:00,30.0,19.3,29.18,SE,135,2.3,2.3,64,0.00,CLR,,0.00,WeatherDisplay:10.37,2013-02-17 05:56:00,
2013-02-16 23:01:00,30.2,19.8,29.18,SSW,202,0.0,0.6,65,0.00,CLR,,0.00,WeatherDisplay:10.37,2013-02-17 06:01:00,
2013-02-16 23:06:00,31.1,20.7,29.22,SE,135,0.0,0.9,65,0.00,CLR,,0.00,WeatherDisplay:10.37,2013-02-17 06:06:00,
2013-02-16 23:11:00,32.5,22.4,29.22,East,90,9.2,9.2,66,0.00,CLR,,0.00,WeatherDisplay:10.37,2013-02-17 06:11:00,
2013-02-16 23:16:00,33.3,23.1,29.22,SSW,202,0.0,2.3,66,0.00,CLR,,0.00,WeatherDisplay:10.37,2013-02-17 06:16:00,
2013-02-16 23:21:00,34.0,23.8,29.22,WNW,292,0.0,2.1,66,0.00,CLR,,0.00,WeatherDisplay:10.37,2013-02-17 06:21:00,
2013-02-16 23:26:00,34.3,24.2,29.24,SSW,202,1.1,1.1,66,0.00,CLR,,0.00,WeatherDisplay:10.37,2013-02-17 06:26:00,
2013-02-16 23:31:00,34.7,24.5,29.24,SW,225,2.8,2.8,66,0.00,CLR,,0.00,WeatherDisplay:10.37,2013-02-17 06:31:00,
2013-02-16 23:36:00,34.9,24.3,29.24,WSW,248,2.3,2.3,65,0.00,CLR,,0.00,WeatherDisplay:10.37,2013-02-17 06:36:00,
2013-02-16 23:41:00,35.2,24.3,29.24,ENE,68,0.0,0.7,64,0.00,CLR,,0.00,WeatherDisplay:10.37,2013-02-17 06:41:00,
2013-02-16 23:46:00,35.4,24.4,29.24,ENE,68,0.0,0.0,64,0.00,CLR,,0.00,WeatherDisplay:10.37,2013-02-17 06:46:00,
2013-02-16 23:51:00,35.4,24.4,29.24,SSE,158,0.0,0.1,64,0.00,CLR,,0.00,WeatherDisplay:10.37,2013-02-17 06:51:00,
2013-02-16 23:56:00,35.6,25.0,29.24,East,90,3.5,3.5,65,0.00,CLR,,0.00,WeatherDisplay:10.37,2013-02-17 06:56:00,